Starks, Louisiana
Current Conditions -  °F | °C
As of 11:15 AM on Thursday 27 Nov 2014 (Local Time) from K5R8 Reporting Station
Clear Clear  
Wind Chill: 57°   Ceiling: Unl
Heat Index: 57°   Visibility: 10mi
Dew Point: 31°   Wind: 6mph
Humidity: 37%   Direction: 40°NE
Pressure: 30.48"   Gusts: NA
Location:  30.32°N, 93.66°W
Report Text: K5R8 271715Z AUTO 04005KT 10SM CLR 14/M01 A3048 RMK AO2 T01371008
Loading
Personal Weather Stations






























Interactive Weather Map New forecast layout! Learn more

10-Day Weather Forecast

Advertisements
Track Severe Weather on mobile